Caroline Guidry — WDB2770 — position and weather

sailwx.info

Track history (hours):
 
Tides and Currents Weather Stations Pressure Air Temp Water Temp Dewpoint Dewpoint Depression Visibility Wind Speed Wind Dir Waves Ship Positions

Caroline Guidry

Owner: DANIELLE MARINE TOWING II LLC, CUT OFF, LA. More information available from US FCC via Universal Licensing System and Coast Guard Vessel Documentation Center.

Last reported at 2017-Sep-24 12:20 UTC. Time now 2017-Sep-26 18:33 UTC.
Position N 29°45' W 095°06'.

Length 16 m; draft 2.3 m.

Type: . MMSI: 366879570.

Date/timePositionNaut miles runAvg speedWind from/ knotsBaromVisibWave heightAir tempDewpointWater temp
2017-Sep-24 12:20N 29°45' W 095°06'  
2017-Sep-17 15:05N 29°43' W 095°01'1 4.5
2017-Sep-17 14:55N 29°42' W 095°01'2 3.4
2017-Sep-17 14:25N 29°42' W 095°03'0 0.0
2017-Sep-17 13:58N 29°43' W 095°03'0 0.0
2017-Sep-17 13:19N 29°43' W 095°03'0 0.0
2017-Sep-17 12:51N 29°43' W 095°03'0 0.0
2017-Sep-17 12:22N 29°43' W 095°03'0 0.0
2017-Sep-17 11:57N 29°43' W 095°03'0 0.0
2017-Sep-17 11:29N 29°43' W 095°03'0 0.0
2017-Sep-17 10:56N 29°43' W 095°03'0 0.0
2017-Sep-17 10:16N 29°43' W 095°03'0 0.0
2017-Sep-17 09:36N 29°43' W 095°03'0 0.0
2017-Sep-17 09:11N 29°43' W 095°03'0 0.0
2017-Sep-17 09:00N 29°43' W 095°03'0 0.0
2017-Sep-17 08:28N 29°43' W 095°03'0 0.0
2017-Sep-17 06:39N 29°43' W 095°03'0 0.0
2017-Sep-17 06:11N 29°43' W 095°03'0 0.0
2017-Sep-17 05:58N 29°43' W 095°03'0 0.0
2017-Sep-17 05:29N 29°43' W 095°03'0 0.0
2017-Sep-17 05:00N 29°42' W 095°03'2 3.0
2017-Sep-17 04:23N 29°42' W 095°01'8 0.2
2017-Sep-15 18:35N 29°45' W 095°10'3 0.1
2017-Sep-14 15:20N 29°45' W 095°07'0 0.2
2017-Sep-14 15:00N 29°45' W 095°06'  
Track history (hours):
 
Tides and Currents Weather Stations Pressure Air Temp Water Temp Dewpoint Dewpoint Depression Visibility Wind Speed Wind Dir Waves Ship Positions

Caroline Guidry

Owner: DANIELLE MARINE TOWING II LLC, CUT OFF, LA. More information available from US FCC via Universal Licensing System and Coast Guard Vessel Documentation Center.

Last reported at 2017-Sep-24 12:20 UTC. Time now 2017-Sep-26 18:33 UTC.
Position N 29°45' W 095°06'.

Length 16 m; draft 2.3 m.

Type: . MMSI: 366879570.

Date/timePositionNaut miles runAvg speedWind from/ knotsBaromVisibWave heightAir tempDewpointWater temp
2017-Sep-24 12:20N 29°45' W 095°06'  
2017-Sep-17 15:05N 29°43' W 095°01'1 4.5
2017-Sep-17 14:55N 29°42' W 095°01'2 3.4
2017-Sep-17 14:25N 29°42' W 095°03'0 0.0
2017-Sep-17 13:58N 29°43' W 095°03'0 0.0
2017-Sep-17 13:19N 29°43' W 095°03'0 0.0
2017-Sep-17 12:51N 29°43' W 095°03'0 0.0
2017-Sep-17 12:22N 29°43' W 095°03'0 0.0
2017-Sep-17 11:57N 29°43' W 095°03'0 0.0
2017-Sep-17 11:29N 29°43' W 095°03'0 0.0
2017-Sep-17 10:56N 29°43' W 095°03'0 0.0
2017-Sep-17 10:16N 29°43' W 095°03'0 0.0
2017-Sep-17 09:36N 29°43' W 095°03'0 0.0
2017-Sep-17 09:11N 29°43' W 095°03'0 0.0
2017-Sep-17 09:00N 29°43' W 095°03'0 0.0
2017-Sep-17 08:28N 29°43' W 095°03'0 0.0
2017-Sep-17 06:39N 29°43' W 095°03'0 0.0
2017-Sep-17 06:11N 29°43' W 095°03'0 0.0
2017-Sep-17 05:58N 29°43' W 095°03'0 0.0
2017-Sep-17 05:29N 29°43' W 095°03'0 0.0
2017-Sep-17 05:00N 29°42' W 095°03'2 3.0
2017-Sep-17 04:23N 29°42' W 095°01'8 0.2
2017-Sep-15 18:35N 29°45' W 095°10'3 0.1
2017-Sep-14 15:20N 29°45' W 095°07'0 0.2
2017-Sep-14 15:00N 29°45' W 095°06'  

Dump ship's entire track history